Time,TemperatureF,DewpointF,PressureIn,WindDirection,WindDirectionDegrees,WindSpeedMPH,WindSpeedGustMPH,Humidity,HourlyPrecipIn,Conditions,Clouds,dailyrainin,SoftwareType,DateUTC
2013-04-08 00:06:00,46.0,37.8,29.89,WSW,244,2.0,3.0,73,0.00,,,0.00,Wunderground v.1.12,2013-04-08 04:06:00,
2013-04-08 00:09:00,46.1,37.6,29.89,WSW,248,2.0,10.0,72,0.00,,,0.00,Wunderground v.1.12,2013-04-08 04:09:00,
2013-04-08 00:14:00,46.0,38.2,29.89,WSW,254,2.0,3.0,74,0.00,,,0.00,Wunderground v.1.12,2013-04-08 04:14:00,
2013-04-08 00:19:00,46.0,38.2,29.89,WSW,253,2.0,5.0,74,0.00,,,0.00,Wunderground v.1.12,2013-04-08 04:19:00,
2013-04-08 00:24:00,46.0,38.2,29.89,WSW,258,3.0,4.0,74,0.00,,,0.00,Wunderground v.1.12,2013-04-08 04:24:00,
2013-04-08 00:29:00,45.8,38.0,29.89,WSW,257,3.0,3.0,74,0.00,,,0.00,Wunderground v.1.12,2013-04-08 04:29:00,
2013-04-08 00:35:00,45.8,38.3,29.89,WSW,238,2.0,2.0,75,0.00,,,0.00,Wunderground v.1.12,2013-04-08 04:35:00,
2013-04-08 00:41:00,45.7,38.2,29.89,WSW,239,2.0,3.0,75,0.00,,,0.00,Wunderground v.1.12,2013-04-08 04:41:00,
2013-04-08 00:46:00,45.7,38.2,29.89,WSW,246,2.0,2.0,75,0.00,,,0.00,Wunderground v.1.12,2013-04-08 04:46:00,
2013-04-08 00:52:00,45.5,38.4,29.89,SW,236,2.0,2.0,76,0.00,,,0.00,Wunderground v.1.12,2013-04-08 04:52:00,
2013-04-08 00:57:00,45.5,38.4,29.89,WSW,240,2.0,2.0,76,0.00,,,0.00,Wunderground v.1.12,2013-04-08 04:57:00,
2013-04-08 01:02:00,45.5,38.4,29.88,WNW,282,1.0,4.0,76,0.00,,,0.00,Wunderground v.1.12,2013-04-08 05:02:00,
2013-04-08 01:08:00,45.7,38.6,29.88,WNW,282,1.0,1.0,76,0.00,,,0.00,Wunderground v.1.12,2013-04-08 05:08:00,
2013-04-08 01:13:00,45.5,38.4,29.88,West,278,1.0,2.0,76,0.00,,,0.00,Wunderground v.1.12,2013-04-08 05:13:00,
2013-04-08 01:18:00,45.5,38.7,29.88,West,278,1.0,3.0,77,0.00,,,0.00,Wunderground v.1.12,2013-04-08 05:18:00,
2013-04-08 01:23:00,45.5,38.7,29.88,SW,233,1.0,5.0,77,0.00,,,0.00,Wunderground v.1.12,2013-04-08 05:23:00,
2013-04-08 01:29:00,45.4,38.6,29.88,West,267,2.0,3.0,77,0.00,,,0.00,Wunderground v.1.12,2013-04-08 05:29:00,
2013-04-08 01:34:00,45.2,38.7,29.87,West,272,1.0,4.0,78,0.00,,,0.00,Wunderground v.1.12,2013-04-08 05:34:00,
2013-04-08 01:40:00,45.4,38.9,29.87,SSE,163,2.0,2.0,78,0.00,,,0.00,Wunderground v.1.12,2013-04-08 05:40:00,
2013-04-08 01:45:00,45.2,38.7,29.87,WSW,242,2.0,2.0,78,0.00,,,0.00,Wunderground v.1.12,2013-04-08 05:45:00,
2013-04-08 01:50:00,45.4,38.9,29.87,SSW,198,2.0,2.0,78,0.00,,,0.00,Wunderground v.1.12,2013-04-08 05:50:00,
2013-04-08 01:57:00,45.2,39.1,29.87,WSW,239,2.0,2.0,79,0.00,,,0.00,Wunderground v.1.12,2013-04-08 05:57:00,
2013-04-08 02:02:00,45.2,39.1,29.87,West,259,2.0,3.0,79,0.00,,,0.00,Wunderground v.1.12,2013-04-08 06:02:00,
2013-04-08 02:07:00,45.2,39.1,29.87,West,259,2.0,2.0,79,0.00,,,0.00,Wunderground v.1.12,2013-04-08 06:07:00,
2013-04-08 02:12:00,45.1,39.0,29.87,SW,223,1.0,3.0,79,0.00,,,0.00,Wunderground v.1.12,2013-04-08 06:12:00,
2013-04-08 02:17:00,45.4,39.6,29.86,West,274,3.0,4.0,80,0.00,,,0.00,Wunderground v.1.12,2013-04-08 06:17:00,
2013-04-08 02:23:00,45.4,39.3,29.86,WSW,254,4.0,4.0,79,0.00,,,0.00,Wunderground v.1.12,2013-04-08 06:23:00,
2013-04-08 02:29:00,45.4,39.6,29.86,WSW,242,3.0,9.0,80,0.00,,,0.00,Wunderground v.1.12,2013-04-08 06:29:00,
2013-04-08 02:35:00,45.4,39.6,29.85,SW,225,3.0,3.0,80,0.00,,,0.00,Wunderground v.1.12,2013-04-08 06:35:00,
2013-04-08 02:40:00,45.2,39.4,29.85,WSW,254,2.0,4.0,80,0.00,,,0.00,Wunderground v.1.12,2013-04-08 06:40:00,
2013-04-08 02:46:00,45.1,39.6,29.84,WSW,241,2.0,2.0,81,0.00,,,0.00,Wunderground v.1.12,2013-04-08 06:46:00,
2013-04-08 02:52:00,45.2,39.7,29.84,SW,221,3.0,9.0,81,0.00,,,0.00,Wunderground v.1.12,2013-04-08 06:52:00,
2013-04-08 03:01:00,45.1,39.6,29.84,WSW,243,3.0,3.0,81,0.00,,,0.00,Wunderground v.1.12,2013-04-08 07:01:00,
2013-04-08 03:07:00,45.1,39.6,29.84,WSW,245,2.0,3.0,81,0.00,,,0.00,Wunderground v.1.12,2013-04-08 07:07:00,
2013-04-08 03:13:00,44.9,39.4,29.84,WSW,238,2.0,6.0,81,0.00,,,0.00,Wunderground v.1.12,2013-04-08 07:13:00,
2013-04-08 03:19:00,45.1,39.9,29.84,SW,221,2.0,4.0,82,0.00,,,0.00,Wunderground v.1.12,2013-04-08 07:19:00,
2013-04-08 03:24:00,44.9,39.7,29.84,West,263,2.0,4.0,82,0.00,,,0.00,Wunderground v.1.12,2013-04-08 07:24:00,
2013-04-08 03:29:00,44.8,39.6,29.84,WSW,242,2.0,5.0,82,0.00,,,0.00,Wunderground v.1.12,2013-04-08 07:29:00,
2013-04-08 03:35:00,44.8,40.0,29.84,WSW,242,3.0,8.0,83,0.00,,,0.00,Wunderground v.1.12,2013-04-08 07:35:00,
2013-04-08 03:40:00,44.9,40.0,29.84,WSW,250,4.0,6.0,83,0.00,,,0.00,Wunderground v.1.12,2013-04-08 07:40:00,
2013-04-08 03:45:00,44.9,40.0,29.84,West,265,4.0,6.0,83,0.00,,,0.00,Wunderground v.1.12,2013-04-08 07:45:00,
2013-04-08 03:50:00,44.8,40.0,29.84,West,262,4.0,4.0,83,0.00,,,0.00,Wunderground v.1.12,2013-04-08 07:50:00,
2013-04-08 03:56:00,44.6,39.8,29.84,WSW,257,3.0,4.0,83,0.00,,,0.00,Wunderground v.1.12,2013-04-08 07:56:00,
2013-04-08 04:01:00,44.5,39.7,29.84,WSW,247,3.0,6.0,83,0.00,,,0.00,Wunderground v.1.12,2013-04-08 08:01:00,
2013-04-08 04:07:00,44.3,39.8,29.84,WSW,247,3.0,6.0,84,0.00,,,0.00,Wunderground v.1.12,2013-04-08 08:07:00,
2013-04-08 04:13:00,44.1,39.6,29.84,WSW,248,3.0,4.0,84,0.00,,,0.00,Wunderground v.1.12,2013-04-08 08:13:00,
2013-04-08 04:18:00,44.1,39.6,29.84,West,261,4.0,4.0,84,0.00,,,0.00,Wunderground v.1.12,2013-04-08 08:18:00,
2013-04-08 04:24:00,44.1,39.9,29.84,West,261,4.0,4.0,85,0.00,,,0.00,Wunderground v.1.12,2013-04-08 08:24:00,
2013-04-08 04:29:00,44.1,39.9,29.84,WSW,241,4.0,6.0,85,0.00,,,0.00,Wunderground v.1.12,2013-04-08 08:29:00,
2013-04-08 04:35:00,44.1,39.9,29.84,WSW,238,4.0,4.0,85,0.00,,,0.00,Wunderground v.1.12,2013-04-08 08:35:00,
2013-04-08 04:40:00,43.9,39.7,29.84,WSW,238,4.0,4.0,85,0.00,,,0.00,Wunderground v.1.12,2013-04-08 08:40:00,
2013-04-08 04:45:00,43.9,39.7,29.84,SW,223,4.0,5.0,85,0.00,,,0.00,Wunderground v.1.12,2013-04-08 08:45:00,
2013-04-08 04:52:00,44.1,40.2,29.84,West,260,4.0,5.0,86,0.00,,,0.00,Wunderground v.1.12,2013-04-08 08:52:00,
2013-04-08 04:58:00,44.1,40.2,29.84,WSW,255,4.0,6.0,86,0.00,,,0.00,Wunderground v.1.12,2013-04-08 08:58:00,
2013-04-08 05:04:00,43.9,40.0,29.85,WSW,242,4.0,4.0,86,0.00,,,0.00,Wunderground v.1.12,2013-04-08 09:04:00,
2013-04-08 05:09:00,43.8,39.9,29.85,WSW,247,3.0,4.0,86,0.00,,,0.00,Wunderground v.1.12,2013-04-08 09:09:00,
2013-04-08 05:14:00,43.6,39.7,29.85,WSW,247,3.0,5.0,86,0.00,,,0.00,Wunderground v.1.12,2013-04-08 09:14:00,
2013-04-08 05:19:00,43.5,39.6,29.85,WSW,240,3.0,3.0,86,0.00,,,0.00,Wunderground v.1.12,2013-04-08 09:19:00,
2013-04-08 05:25:00,43.3,39.7,29.85,WSW,240,2.0,2.0,87,0.00,,,0.00,Wunderground v.1.12,2013-04-08 09:25:00,
2013-04-08 05:31:00,43.3,39.7,29.86,WSW,240,2.0,5.0,87,0.00,,,0.00,Wunderground v.1.12,2013-04-08 09:31:00,
2013-04-08 05:36:00,43.2,39.6,29.86,WSW,240,2.0,4.0,87,0.00,,,0.00,Wunderground v.1.12,2013-04-08 09:36:00,
2013-04-08 05:41:00,43.1,39.8,29.86,WSW,241,2.0,3.0,88,0.00,,,0.00,Wunderground v.1.12,2013-04-08 09:41:00,
2013-04-08 05:47:00,43.1,39.8,29.86,WSW,240,2.0,4.0,88,0.00,,,0.00,Wunderground v.1.12,2013-04-08 09:47:00,
2013-04-08 05:53:00,42.9,39.6,29.86,WSW,240,2.0,2.0,88,0.00,,,0.00,Wunderground v.1.12,2013-04-08 09:53:00,
2013-04-08 06:00:00,42.9,39.9,29.86,WSW,240,1.0,2.0,89,0.00,,,0.00,Wunderground v.1.12,2013-04-08 10:00:00,
2013-04-08 06:05:00,42.8,39.5,29.86,WSW,241,1.0,2.0,88,0.00,,,0.00,Wunderground v.1.12,2013-04-08 10:05:00,
2013-04-08 06:12:00,42.6,39.6,29.86,WSW,240,1.0,5.0,89,0.00,,,0.00,Wunderground v.1.12,2013-04-08 10:12:00,
2013-04-08 06:18:00,42.5,39.5,29.86,WSW,241,1.0,3.0,89,0.00,,,0.00,Wunderground v.1.12,2013-04-08 10:18:00,
2013-04-08 06:24:00,42.3,39.3,29.86,WSW,240,1.0,1.0,89,0.00,,,0.00,Wunderground v.1.12,2013-04-08 10:24:00,
2013-04-08 06:30:00,42.2,39.5,29.87,WSW,241,1.0,3.0,90,0.00,,,0.00,Wunderground v.1.12,2013-04-08 10:30:00,
2013-04-08 06:36:00,42.2,39.5,29.87,WSW,241,2.0,2.0,90,0.00,,,0.00,Wunderground v.1.12,2013-04-08 10:36:00,
2013-04-08 06:41:00,42.2,39.5,29.87,WSW,240,2.0,5.0,90,0.00,,,0.00,Wunderground v.1.12,2013-04-08 10:41:00,
2013-04-08 06:47:00,42.2,39.5,29.88,WSW,241,2.0,2.0,90,0.00,,,0.00,Wunderground v.1.12,2013-04-08 10:47:00,
2013-04-08 06:53:00,42.2,39.5,29.88,WSW,241,2.0,3.0,90,0.00,,,0.00,Wunderground v.1.12,2013-04-08 10:53:00,
2013-04-08 07:00:00,42.8,40.1,29.89,WSW,241,2.0,4.0,90,0.00,,,0.00,Wunderground v.1.12,2013-04-08 11:00:00,
2013-04-08 07:06:00,43.2,40.2,29.89,West,278,3.0,3.0,89,0.00,,,0.00,Wunderground v.1.12,2013-04-08 11:06:00,
2013-04-08 07:12:00,43.5,39.9,29.89,West,278,3.0,3.0,87,0.00,,,0.00,Wunderground v.1.12,2013-04-08 11:12:00,
2013-04-08 07:18:00,43.8,39.9,29.89,WNW,286,4.0,4.0,86,0.00,,,0.00,Wunderground v.1.12,2013-04-08 11:18:00,
2013-04-08 07:23:00,44.2,39.7,29.89,WNW,282,4.0,8.0,84,0.00,,,0.00,Wunderground v.1.12,2013-04-08 11:23:00,
2013-04-08 07:31:00,44.9,39.7,29.89,WSW,249,6.0,6.0,82,0.00,,,0.00,Wunderground v.1.12,2013-04-08 11:31:00,
2013-04-08 07:37:00,45.2,39.7,29.89,West,266,5.0,5.0,81,0.00,,,0.00,Wunderground v.1.12,2013-04-08 11:37:00,
2013-04-08 07:43:00,45.5,39.7,29.89,West,277,5.0,10.0,80,0.00,,,0.00,Wunderground v.1.12,2013-04-08 11:43:00,
2013-04-08 07:48:00,45.8,39.7,29.89,West,274,5.0,5.0,79,0.00,,,0.00,Wunderground v.1.12,2013-04-08 11:48:00,
2013-04-08 07:54:00,46.0,39.5,29.89,WNW,293,5.0,6.0,78,0.00,,,0.00,Wunderground v.1.12,2013-04-08 11:54:00,
2013-04-08 08:00:00,46.2,40.0,29.89,WNW,286,4.0,6.0,79,0.00,,,0.00,Wunderground v.1.12,2013-04-08 12:00:00,
2013-04-08 08:06:00,46.5,39.7,29.89,WNW,294,4.0,6.0,77,0.00,,,0.00,Wunderground v.1.12,2013-04-08 12:06:00,
2013-04-08 08:11:00,47.0,39.8,29.89,WNW,294,4.0,4.0,76,0.00,,,0.00,Wunderground v.1.12,2013-04-08 12:11:00,
2013-04-08 08:16:00,47.3,40.1,29.89,WNW,293,2.0,4.0,76,0.00,,,0.00,Wunderground v.1.12,2013-04-08 12:16:00,
2013-04-08 08:25:00,48.3,40.0,29.89,WNW,295,4.0,4.0,73,0.00,,,0.00,Wunderground v.1.12,2013-04-08 12:25:00,
2013-04-08 08:29:00,48.9,39.9,29.90,WSW,250,3.0,6.0,71,0.00,,,0.00,Wunderground v.1.12,2013-04-08 12:29:00,
2013-04-08 08:35:00,49.4,40.0,29.90,WSW,256,3.0,3.0,70,0.00,,,0.00,Wunderground v.1.12,2013-04-08 12:35:00,
2013-04-08 08:40:00,49.8,39.7,29.90,WNW,298,3.0,3.0,68,0.00,,,0.00,Wunderground v.1.12,2013-04-08 12:40:00,
2013-04-08 08:45:00,50.2,39.7,29.90,NW,307,3.0,3.0,67,0.00,,,0.00,Wunderground v.1.12,2013-04-08 12:45:00,
2013-04-08 08:52:00,50.7,39.0,29.90,WNW,282,3.0,5.0,64,0.00,,,0.00,Wunderground v.1.12,2013-04-08 12:52:00,
2013-04-08 08:59:00,51.1,38.5,29.90,WNW,302,3.0,7.0,62,0.00,,,0.00,Wunderground v.1.12,2013-04-08 12:59:00,
2013-04-08 09:05:00,51.6,37.7,29.89,West,265,3.0,3.0,59,0.00,,,0.00,Wunderground v.1.12,2013-04-08 13:05:00,
2013-04-08 09:10:00,52.0,38.5,29.89,West,271,4.0,4.0,60,0.00,,,0.00,Wunderground v.1.12,2013-04-08 13:10:00,
2013-04-08 09:16:00,52.6,37.8,29.90,NNW,327,5.0,6.0,57,0.00,,,0.00,Wunderground v.1.12,2013-04-08 13:16:00,
2013-04-08 09:21:00,53.1,37.8,29.90,NW,304,5.0,13.0,56,0.00,,,0.00,Wunderground v.1.12,2013-04-08 13:21:00,
2013-04-08 09:27:00,52.8,38.0,29.90,NNW,342,5.0,10.0,57,0.00,,,0.00,Wunderground v.1.12,2013-04-08 13:27:00,
2013-04-08 09:34:00,52.9,38.1,29.90,NNW,327,6.0,9.0,57,0.00,,,0.00,Wunderground v.1.12,2013-04-08 13:34:00,
2013-04-08 09:39:00,53.3,37.1,29.90,WNW,285,5.0,13.0,54,0.00,,,0.00,Wunderground v.1.12,2013-04-08 13:39:00,
2013-04-08 09:45:00,53.2,37.4,29.91,West,271,6.0,6.0,55,0.00,,,0.00,Wunderground v.1.12,2013-04-08 13:45:00,
2013-04-08 09:51:00,53.3,37.1,29.91,NNW,330,6.0,8.0,54,0.00,,,0.00,Wunderground v.1.12,2013-04-08 13:51:00,
2013-04-08 09:56:00,53.1,36.4,29.91,WNW,303,6.0,9.0,53,0.00,,,0.00,Wunderground v.1.12,2013-04-08 13:56:00,
2013-04-08 10:03:00,52.6,37.3,29.90,WNW,293,5.0,17.0,56,0.00,,,0.00,Wunderground v.1.12,2013-04-08 14:03:00,
2013-04-08 10:09:00,53.8,36.6,29.92,NNW,336,5.0,9.0,52,0.00,,,0.00,Wunderground v.1.12,2013-04-08 14:09:00,
2013-04-08 10:15:00,54.2,36.5,29.92,NW,311,5.0,5.0,51,0.00,,,0.00,Wunderground v.1.12,2013-04-08 14:15:00,
2013-04-08 10:20:00,54.4,36.1,29.92,WNW,302,5.0,5.0,50,0.00,,,0.00,Wunderground v.1.12,2013-04-08 14:20:00,
2013-04-08 10:25:00,53.8,35.6,29.92,West,261,6.0,6.0,50,0.00,,,0.00,Wunderground v.1.12,2013-04-08 14:25:00,
2013-04-08 10:31:00,53.5,35.8,29.93,WNW,298,7.0,15.0,51,0.00,,,0.00,Wunderground v.1.12,2013-04-08 14:31:00,
2013-04-08 10:36:00,53.8,35.6,29.93,NW,311,7.0,7.0,50,0.00,,,0.00,Wunderground v.1.12,2013-04-08 14:36:00,
2013-04-08 10:42:00,54.1,35.3,29.93,West,270,5.0,6.0,49,0.00,,,0.00,Wunderground v.1.12,2013-04-08 14:42:00,
2013-04-08 10:48:00,53.9,35.7,29.93,West,280,6.0,10.0,50,0.00,,,0.00,Wunderground v.1.12,2013-04-08 14:48:00,
2013-04-08 10:53:00,54.1,35.3,29.93,NNW,331,5.0,6.0,49,0.00,,,0.00,Wunderground v.1.12,2013-04-08 14:53:00,
2013-04-08 10:59:00,54.4,36.1,29.93,NW,304,4.0,9.0,50,0.00,,,0.00,Wunderground v.1.12,2013-04-08 14:59:00,
2013-04-08 11:04:00,54.5,35.7,29.94,NW,308,4.0,4.0,49,0.00,,,0.00,Wunderground v.1.12,2013-04-08 15:04:00,
2013-04-08 11:10:00,54.8,34.9,29.94,WNW,299,4.0,6.0,47,0.00,,,0.00,Wunderground v.1.12,2013-04-08 15:10:00,
2013-04-08 11:17:00,54.1,34.8,29.95,NW,310,7.0,16.0,48,0.00,,,0.00,Wunderground v.1.12,2013-04-08 15:17:00,
2013-04-08 11:23:00,54.4,34.6,29.95,NW,321,9.0,9.0,47,0.00,,,0.00,Wunderground v.1.12,2013-04-08 15:23:00,
2013-04-08 11:29:00,54.2,34.4,29.95,West,277,8.0,12.0,47,0.00,,,0.00,Wunderground v.1.12,2013-04-08 15:29:00,
2013-04-08 11:35:00,54.4,34.6,29.95,WSW,254,9.0,11.0,47,0.00,,,0.00,Wunderground v.1.12,2013-04-08 15:35:00,
2013-04-08 11:40:00,54.7,34.3,29.95,NW,326,8.0,8.0,46,0.00,,,0.00,Wunderground v.1.12,2013-04-08 15:40:00,
2013-04-08 11:45:00,55.3,34.3,29.95,WNW,287,5.0,5.0,45,0.00,,,0.00,Wunderground v.1.12,2013-04-08 15:45:00,
2013-04-08 11:51:00,55.1,34.1,29.95,West,273,4.0,9.0,45,0.00,,,0.00,Wunderground v.1.12,2013-04-08 15:51:00,
2013-04-08 11:56:00,55.7,35.2,29.95,WNW,288,5.0,9.0,46,0.00,,,0.00,Wunderground v.1.12,2013-04-08 15:56:00,
2013-04-08 12:03:00,53.9,34.1,29.95,WNW,293,7.0,17.0,47,0.00,,,0.00,Wunderground v.1.12,2013-04-08 16:03:00,
2013-04-08 12:09:00,57.2,33.7,29.95,NNW,333,4.0,12.0,41,0.00,,,0.00,Wunderground v.1.12,2013-04-08 16:09:00,
2013-04-08 12:14:00,56.9,35.2,29.96,WNW,302,4.0,4.0,44,0.00,,,0.00,Wunderground v.1.12,2013-04-08 16:14:00,
2013-04-08 12:20:00,56.9,34.0,29.96,WNW,293,5.0,5.0,42,0.00,,,0.00,Wunderground v.1.12,2013-04-08 16:20:00,
2013-04-08 12:25:00,56.5,34.3,29.96,West,279,7.0,11.0,43,0.00,,,0.00,Wunderground v.1.12,2013-04-08 16:25:00,
2013-04-08 12:31:00,56.5,34.8,29.95,WNW,290,7.0,7.0,44,0.00,,,0.00,Wunderground v.1.12,2013-04-08 16:31:00,
2013-04-08 12:37:00,57.0,33.5,29.95,WNW,287,4.0,10.0,41,0.00,,,0.00,Wunderground v.1.12,2013-04-08 16:37:00,
2013-04-08 12:43:00,57.6,35.2,29.95,WNW,297,5.0,7.0,43,0.00,,,0.00,Wunderground v.1.12,2013-04-08 16:43:00,
2013-04-08 12:48:00,58.3,33.4,29.96,West,273,5.0,7.0,39,0.00,,,0.00,Wunderground v.1.12,2013-04-08 16:48:00,
2013-04-08 12:53:00,58.1,33.9,29.96,NNW,333,4.0,10.0,40,0.00,,,0.00,Wunderground v.1.12,2013-04-08 16:53:00,
2013-04-08 12:59:00,58.7,33.8,29.96,North,350,4.0,9.0,39,0.00,,,0.00,Wunderground v.1.12,2013-04-08 16:59:00,
2013-04-08 13:04:00,58.9,34.0,29.95,NNE,33,5.0,5.0,39,0.00,,,0.00,Wunderground v.1.12,2013-04-08 17:04:00,
2013-04-08 13:09:00,58.7,33.8,29.95,WNW,291,4.0,6.0,39,0.00,,,0.00,Wunderground v.1.12,2013-04-08 17:09:00,
2013-04-08 13:15:00,58.4,35.4,29.95,West,272,4.0,4.0,42,0.00,,,0.00,Wunderground v.1.12,2013-04-08 17:15:00,
2013-04-08 13:20:00,58.9,33.3,29.95,West,263,3.0,3.0,38,0.00,,,0.00,Wunderground v.1.12,2013-04-08 17:20:00,
2013-04-08 13:25:00,59.3,33.0,29.95,NNW,332,3.0,6.0,37,0.00,,,0.00,Wunderground v.1.12,2013-04-08 17:25:00,
2013-04-08 13:30:00,60.2,34.5,29.95,NW,306,2.0,2.0,38,0.00,,,0.00,Wunderground v.1.12,2013-04-08 17:30:00,
2013-04-08 13:36:00,60.7,32.9,29.95,NW,322,2.0,2.0,35,0.00,,,0.00,Wunderground v.1.12,2013-04-08 17:36:00,
2013-04-08 13:41:00,61.3,34.8,29.95,NW,306,2.0,4.0,37,0.00,,,0.00,Wunderground v.1.12,2013-04-08 17:41:00,
2013-04-08 13:47:00,60.5,35.4,29.95,WNW,288,4.0,4.0,39,0.00,,,0.00,Wunderground v.1.12,2013-04-08 17:47:00,
2013-04-08 13:53:00,60.1,33.0,29.95,WNW,291,4.0,7.0,36,0.00,,,0.00,Wunderground v.1.12,2013-04-08 17:53:00,
2013-04-08 13:58:00,60.1,33.0,29.95,WNW,300,3.0,4.0,36,0.00,,,0.00,Wunderground v.1.12,2013-04-08 17:58:00,
2013-04-08 14:04:00,60.4,33.3,29.95,NW,307,3.0,4.0,36,0.00,,,0.00,Wunderground v.1.12,2013-04-08 18:04:00,
2013-04-08 14:11:00,61.2,33.3,29.95,WNW,288,2.0,3.0,35,0.00,,,0.00,Wunderground v.1.12,2013-04-08 18:11:00,
2013-04-08 14:17:00,62.1,32.6,29.95,West,265,3.0,8.0,33,0.00,,,0.00,Wunderground v.1.12,2013-04-08 18:17:00,
2013-04-08 14:23:00,60.9,33.0,29.95,WNW,286,3.0,6.0,35,0.00,,,0.00,Wunderground v.1.12,2013-04-08 18:23:00,
2013-04-08 14:29:00,61.3,33.4,29.94,NW,317,3.0,4.0,35,0.00,,,0.00,Wunderground v.1.12,2013-04-08 18:29:00,
2013-04-08 14:34:00,61.3,32.7,29.94,West,278,2.0,2.0,34,0.00,,,0.00,Wunderground v.1.12,2013-04-08 18:34:00,
2013-04-08 14:40:00,61.5,32.1,29.94,WNW,298,2.0,3.0,33,0.00,,,0.00,Wunderground v.1.12,2013-04-08 18:40:00,
2013-04-08 14:45:00,62.1,33.4,29.95,NW,315,2.0,5.0,34,0.00,,,0.00,Wunderground v.1.12,2013-04-08 18:45:00,
2013-04-08 14:51:00,61.6,32.2,29.95,West,276,4.0,8.0,33,0.00,,,0.00,Wunderground v.1.12,2013-04-08 18:51:00,
2013-04-08 14:58:00,62.0,32.5,29.95,WNW,299,4.0,5.0,33,0.00,,,0.00,Wunderground v.1.12,2013-04-08 18:58:00,
2013-04-08 15:03:00,62.6,33.1,29.95,NW,305,3.0,3.0,33,0.00,,,0.00,Wunderground v.1.12,2013-04-08 19:03:00,
2013-04-08 15:08:00,62.6,30.7,29.95,WNW,289,3.0,9.0,30,0.00,,,0.00,Wunderground v.1.12,2013-04-08 19:08:00,
2013-04-08 15:14:00,62.3,31.3,29.94,WNW,298,3.0,3.0,31,0.00,,,0.00,Wunderground v.1.12,2013-04-08 19:14:00,
2013-04-08 15:19:00,62.0,31.8,29.94,NE,52,3.0,3.0,32,0.00,,,0.00,Wunderground v.1.12,2013-04-08 19:19:00,
2013-04-08 15:24:00,62.6,31.5,29.94,ENE,57,2.0,2.0,31,0.00,,,0.00,Wunderground v.1.12,2013-04-08 19:24:00,
2013-04-08 15:30:00,64.2,32.1,29.93,ENE,57,1.0,3.0,30,0.00,,,0.00,Wunderground v.1.12,2013-04-08 19:30:00,
2013-04-08 15:36:00,65.2,31.2,29.93,North,355,1.0,1.0,28,0.00,,,0.00,Wunderground v.1.12,2013-04-08 19:36:00,
2013-04-08 15:41:00,65.6,31.6,29.93,NNE,16,1.0,2.0,28,0.00,,,0.00,Wunderground v.1.12,2013-04-08 19:41:00,
2013-04-08 15:47:00,65.3,31.3,29.93,North,355,1.0,3.0,28,0.00,,,0.00,Wunderground v.1.12,2013-04-08 19:47:00,
2013-04-08 15:53:00,63.4,34.5,29.93,East,98,1.0,5.0,34,0.00,,,0.00,Wunderground v.1.12,2013-04-08 19:53:00,
2013-04-08 15:58:00,62.0,34.0,29.93,East,82,2.0,6.0,35,0.00,,,0.00,Wunderground v.1.12,2013-04-08 19:58:00,
2013-04-08 16:03:00,64.3,31.3,29.93,WNW,293,2.0,9.0,29,0.00,,,0.00,Wunderground v.1.12,2013-04-08 20:03:00,
2013-04-08 16:09:00,59.5,35.8,29.93,ENE,72,4.0,5.0,41,0.00,,,0.00,Wunderground v.1.12,2013-04-08 20:09:00,
2013-04-08 16:15:00,57.8,36.6,29.95,ENE,72,4.0,4.0,45,0.00,,,0.00,Wunderground v.1.12,2013-04-08 20:15:00,
2013-04-08 16:21:00,56.9,37.4,29.95,East,84,4.0,5.0,48,0.00,,,0.00,Wunderground v.1.12,2013-04-08 20:21:00,
2013-04-08 16:26:00,56.2,36.2,29.95,East,101,4.0,4.0,47,0.00,,,0.00,Wunderground v.1.12,2013-04-08 20:26:00,
2013-04-08 16:32:00,55.9,36.5,29.95,East,94,4.0,6.0,48,0.00,,,0.00,Wunderground v.1.12,2013-04-08 20:32:00,
2013-04-08 16:38:00,55.6,36.7,29.95,East,84,4.0,4.0,49,0.00,,,0.00,Wunderground v.1.12,2013-04-08 20:38:00,
2013-04-08 16:43:00,55.1,36.8,29.95,East,90,3.0,6.0,50,0.00,,,0.00,Wunderground v.1.12,2013-04-08 20:43:00,
2013-04-08 16:49:00,54.1,36.9,29.96,ENE,71,4.0,5.0,52,0.00,,,0.00,Wunderground v.1.12,2013-04-08 20:49:00,
2013-04-08 16:54:00,53.1,36.9,29.96,East,100,4.0,4.0,54,0.00,,,0.00,Wunderground v.1.12,2013-04-08 20:54:00,
2013-04-08 17:01:00,52.5,36.8,29.95,East,81,5.0,6.0,55,0.00,,,0.00,Wunderground v.1.12,2013-04-08 21:01:00,
2013-04-08 17:06:00,52.5,36.8,29.95,East,82,4.0,5.0,55,0.00,,,0.00,Wunderground v.1.12,2013-04-08 21:06:00,
2013-04-08 17:11:00,52.5,36.8,29.95,East,92,5.0,9.0,55,0.00,,,0.00,Wunderground v.1.12,2013-04-08 21:11:00,
2013-04-08 17:16:00,52.5,36.8,29.95,East,96,5.0,6.0,55,0.00,,,0.00,Wunderground v.1.12,2013-04-08 21:16:00,
2013-04-08 17:23:00,53.2,37.4,29.95,ESE,107,2.0,3.0,55,0.00,,,0.00,Wunderground v.1.12,2013-04-08 21:23:00,
2013-04-08 17:29:00,53.5,37.3,29.96,East,95,1.0,1.0,54,0.00,,,0.00,Wunderground v.1.12,2013-04-08 21:29:00,
2013-04-08 17:34:00,53.2,37.0,29.96,East,87,2.0,3.0,54,0.00,,,0.00,Wunderground v.1.12,2013-04-08 21:34:00,
2013-04-08 17:39:00,52.6,36.9,29.96,ESE,109,3.0,3.0,55,0.00,,,0.00,Wunderground v.1.12,2013-04-08 21:39:00,
2013-04-08 17:45:00,52.6,36.9,29.97,ESE,111,3.0,3.0,55,0.00,,,0.00,Wunderground v.1.12,2013-04-08 21:45:00,
2013-04-08 17:50:00,52.6,36.9,29.97,East,92,3.0,4.0,55,0.00,,,0.00,Wunderground v.1.12,2013-04-08 21:50:00,
2013-04-08 17:55:00,52.5,36.8,29.97,East,90,2.0,3.0,55,0.00,,,0.00,Wunderground v.1.12,2013-04-08 21:55:00,
2013-04-08 18:00:00,52.2,37.0,29.97,SE,127,3.0,3.0,56,0.00,,,0.00,Wunderground v.1.12,2013-04-08 22:00:00,
2013-04-08 18:06:00,51.9,37.1,29.97,ESE,102,3.0,3.0,57,0.00,,,0.00,Wunderground v.1.12,2013-04-08 22:06:00,
2013-04-08 18:12:00,51.7,36.9,29.97,East,94,2.0,6.0,57,0.00,,,0.00,Wunderground v.1.12,2013-04-08 22:12:00,
2013-04-08 18:18:00,51.3,37.0,29.96,East,97,3.0,4.0,58,0.00,,,0.00,Wunderground v.1.12,2013-04-08 22:18:00,
2013-04-08 18:24:00,50.7,37.3,29.96,East,86,4.0,5.0,60,0.00,,,0.00,Wunderground v.1.12,2013-04-08 22:24:00,
2013-04-08 18:29:00,50.4,37.4,29.96,East,96,3.0,3.0,61,0.00,,,0.00,Wunderground v.1.12,2013-04-08 22:29:00,
2013-04-08 18:35:00,50.2,37.3,29.97,East,95,2.0,2.0,61,0.00,,,0.00,Wunderground v.1.12,2013-04-08 22:35:00,
2013-04-08 18:41:00,50.2,37.7,29.97,East,92,1.0,1.0,62,0.00,,,0.00,Wunderground v.1.12,2013-04-08 22:41:00,
2013-04-08 18:46:00,49.9,37.4,29.97,East,93,1.0,1.0,62,0.00,,,0.00,Wunderground v.1.12,2013-04-08 22:46:00,
2013-04-08 18:51:00,49.6,37.5,29.97,SE,129,1.0,2.0,63,0.00,,,0.00,Wunderground v.1.12,2013-04-08 22:51:00,
2013-04-08 18:57:00,49.4,37.7,29.97,East,90,1.0,1.0,64,0.00,,,0.00,Wunderground v.1.12,2013-04-08 22:57:00,
2013-04-08 19:02:00,49.2,37.5,29.98,East,90,1.0,1.0,64,0.00,,,0.00,Wunderground v.1.12,2013-04-08 23:02:00,
2013-04-08 19:08:00,48.9,37.6,29.98,East,91,0.0,3.0,65,0.00,,,0.00,Wunderground v.1.12,2013-04-08 23:08:00,
2013-04-08 19:13:00,48.5,37.7,29.98,East,92,0.0,1.0,66,0.00,,,0.00,Wunderground v.1.12,2013-04-08 23:13:00,
2013-04-08 19:19:00,48.2,37.8,30.00,East,94,0.0,0.0,67,0.00,,,0.00,Wunderground v.1.12,2013-04-08 23:19:00,
2013-04-08 19:24:00,47.7,37.7,30.00,East,90,1.0,1.0,68,0.00,,,0.00,Wunderground v.1.12,2013-04-08 23:24:00,
2013-04-08 19:30:00,47.4,38.1,30.00,East,94,1.0,1.0,70,0.00,,,0.00,Wunderground v.1.12,2013-04-08 23:30:00,
2013-04-08 19:35:00,47.1,37.8,30.00,ENE,78,1.0,6.0,70,0.00,,,0.00,Wunderground v.1.12,2013-04-08 23:35:00,
2013-04-08 19:40:00,46.8,37.9,30.00,East,97,1.0,1.0,71,0.00,,,0.00,Wunderground v.1.12,2013-04-08 23:40:00,
2013-04-08 19:46:00,46.7,38.1,30.00,East,101,1.0,3.0,72,0.00,,,0.00,Wunderground v.1.12,2013-04-08 23:46:00,
2013-04-08 19:51:00,46.5,38.3,30.00,ESE,121,1.0,2.0,73,0.00,,,0.00,Wunderground v.1.12,2013-04-08 23:51:00,
2013-04-08 19:57:00,46.4,38.2,30.00,East,92,1.0,2.0,73,0.00,,,0.00,Wunderground v.1.12,2013-04-08 23:57:00,
2013-04-08 20:03:00,47.4,38.1,30.00,East,90,0.0,4.0,70,0.00,,,0.00,Wunderground v.1.12,2013-04-09 00:03:00,
2013-04-08 20:08:00,46.4,38.2,30.01,ESE,121,1.0,2.0,73,0.00,,,0.00,Wunderground v.1.12,2013-04-09 00:08:00,
2013-04-08 20:13:00,46.5,38.3,30.01,NE,51,1.0,5.0,73,0.00,,,0.00,Wunderground v.1.12,2013-04-09 00:13:00,
2013-04-08 20:18:00,46.7,38.5,30.01,East,80,1.0,1.0,73,0.00,,,0.00,Wunderground v.1.12,2013-04-09 00:18:00,
2013-04-08 20:24:00,46.7,38.5,30.01,East,80,0.0,0.0,73,0.00,,,0.00,Wunderground v.1.12,2013-04-09 00:24:00,
2013-04-08 20:29:00,46.8,38.2,30.02,East,82,0.0,0.0,72,0.00,,,0.00,Wunderground v.1.12,2013-04-09 00:29:00,
2013-04-08 20:35:00,46.8,38.2,30.02,East,86,0.0,0.0,72,0.00,,,0.00,Wunderground v.1.12,2013-04-09 00:35:00,
2013-04-08 20:40:00,46.7,38.5,30.02,East,101,1.0,1.0,73,0.00,,,0.00,Wunderground v.1.12,2013-04-09 00:40:00,
2013-04-08 20:45:00,46.7,38.5,30.02,SE,144,1.0,3.0,73,0.00,,,0.00,Wunderground v.1.12,2013-04-09 00:45:00,
2013-04-08 20:52:00,46.7,38.5,30.02,SE,129,1.0,1.0,73,0.00,,,0.00,Wunderground v.1.12,2013-04-09 00:52:00,
2013-04-08 20:58:00,46.5,38.3,30.02,SE,128,0.0,1.0,73,0.00,,,0.00,Wunderground v.1.12,2013-04-09 00:58:00,
2013-04-08 21:03:00,46.8,38.2,30.02,East,90,1.0,7.0,72,0.00,,,0.00,Wunderground v.1.12,2013-04-09 01:03:00,
2013-04-08 21:08:00,46.4,38.2,30.02,SE,126,0.0,0.0,73,0.00,,,0.00,Wunderground v.1.12,2013-04-09 01:08:00,
2013-04-08 21:15:00,46.4,38.2,30.02,ESE,108,0.0,0.0,73,0.00,,,0.00,Wunderground v.1.12,2013-04-09 01:15:00,
2013-04-08 21:20:00,46.2,38.0,30.02,ESE,108,0.0,0.0,73,0.00,,,0.00,Wunderground v.1.12,2013-04-09 01:20:00,
2013-04-08 21:26:00,46.1,37.9,30.02,ESE,108,0.0,0.0,73,0.00,,,0.00,Wunderground v.1.12,2013-04-09 01:26:00,
2013-04-08 21:31:00,46.0,38.2,30.02,ESE,108,0.0,0.0,74,0.00,,,0.00,Wunderground v.1.12,2013-04-09 01:31:00,
2013-04-08 21:38:00,45.7,37.9,30.02,ESE,108,0.0,0.0,74,0.00,,,0.00,Wunderground v.1.12,2013-04-09 01:38:00,
2013-04-08 21:43:00,45.4,37.6,30.02,ESE,108,0.0,0.0,74,0.00,,,0.00,Wunderground v.1.12,2013-04-09 01:43:00,
2013-04-08 21:48:00,45.2,37.7,30.02,ESE,108,0.0,1.0,75,0.00,,,0.00,Wunderground v.1.12,2013-04-09 01:48:00,
2013-04-08 21:53:00,45.2,37.7,30.02,ESE,108,0.0,0.0,75,0.00,,,0.00,Wunderground v.1.12,2013-04-09 01:53:00,
2013-04-08 21:59:00,45.2,37.4,30.02,ESE,111,0.0,0.0,74,0.00,,,0.00,Wunderground v.1.12,2013-04-09 01:59:00,
2013-04-08 22:05:00,45.2,37.4,30.02,ESE,113,0.0,0.0,74,0.00,,,0.00,Wunderground v.1.12,2013-04-09 02:05:00,
2013-04-08 22:10:00,45.5,37.3,30.02,SSE,158,0.0,0.0,73,0.00,,,0.00,Wunderground v.1.12,2013-04-09 02:10:00,
2013-04-08 22:16:00,45.7,37.5,30.02,East,92,0.0,1.0,73,0.00,,,0.00,Wunderground v.1.12,2013-04-09 02:16:00,
2013-04-08 22:22:00,45.7,37.2,30.02,East,93,0.0,0.0,72,0.00,,,0.00,Wunderground v.1.12,2013-04-09 02:22:00,
2013-04-08 22:28:00,45.7,37.5,30.02,East,93,0.0,0.0,73,0.00,,,0.00,Wunderground v.1.12,2013-04-09 02:28:00,
2013-04-08 22:33:00,45.7,37.5,30.02,East,101,0.0,0.0,73,0.00,,,0.00,Wunderground v.1.12,2013-04-09 02:33:00,
2013-04-08 22:41:00,45.4,37.2,30.02,East,101,0.0,0.0,73,0.00,,,0.00,Wunderground v.1.12,2013-04-09 02:41:00,
2013-04-08 22:47:00,45.1,37.0,30.02,East,101,0.0,0.0,73,0.00,,,0.00,Wunderground v.1.12,2013-04-09 02:47:00,
2013-04-08 22:52:00,44.9,37.1,30.02,East,101,0.0,0.0,74,0.00,,,0.00,Wunderground v.1.12,2013-04-09 02:52:00,
2013-04-08 22:58:00,44.8,37.4,30.02,East,101,0.0,0.0,75,0.00,,,0.00,Wunderground v.1.12,2013-04-09 02:58:00,
2013-04-08 23:03:00,45.7,37.5,30.02,East,90,0.0,3.0,73,0.00,,,0.00,Wunderground v.1.12,2013-04-09 03:03:00,
2013-04-08 23:08:00,44.9,37.1,30.02,East,101,0.0,0.0,74,0.00,,,0.00,Wunderground v.1.12,2013-04-09 03:08:00,
2013-04-08 23:13:00,45.1,37.0,30.02,East,84,0.0,3.0,73,0.00,,,0.00,Wunderground v.1.12,2013-04-09 03:13:00,
2013-04-08 23:19:00,45.4,36.9,30.02,East,85,0.0,1.0,72,0.00,,,0.00,Wunderground v.1.12,2013-04-09 03:19:00,
2013-04-08 23:25:00,45.7,37.2,30.02,ESE,108,0.0,0.0,72,0.00,,,0.00,Wunderground v.1.12,2013-04-09 03:25:00,
2013-04-08 23:30:00,45.8,36.9,30.01,SE,132,1.0,1.0,71,0.00,,,0.00,Wunderground v.1.12,2013-04-09 03:30:00,
2013-04-08 23:35:00,46.0,36.8,30.01,SE,131,0.0,0.0,70,0.00,,,0.00,Wunderground v.1.12,2013-04-09 03:35:00,
2013-04-08 23:41:00,46.1,36.9,30.01,South,181,0.0,0.0,70,0.00,,,0.00,Wunderground v.1.12,2013-04-09 03:41:00,
2013-04-08 23:46:00,46.1,36.9,30.01,East,87,0.0,0.0,70,0.00,,,0.00,Wunderground v.1.12,2013-04-09 03:46:00,
2013-04-08 23:51:00,46.0,36.8,30.01,East,88,0.0,0.0,70,0.00,,,0.00,Wunderground v.1.12,2013-04-09 03:51:00,
2013-04-08 23:56:00,46.0,37.1,30.01,East,88,0.0,1.0,71,0.00,,,0.00,Wunderground v.1.12,2013-04-09 03:56:00,